^^
Datos históricos de la estación: Murcia-Puente Tocinos
Diario Informe para Enero 21, 2020 Unidades:  Métrico    Ingés   Ambas
Diario Semanal Mensual Anual
  Máxima: Mínima: Promedio:
Temperatura: 11.8 °C 7.7 °C 9.2 °C
Punto de rocio: 8.7 °C 6.9 °C 7.7 °C
Humedad: 97% 77.1% 91%
Velocidad viento: 16.1km/h 0km/h 7.5km/h
Racha viento: 32.2km/h - -
Viento- - SSO
Presión: 1016.3 hPa 1010.3 hPa -
Precipitación: 51.6 mm    
 
 
Tabla de datos para Enero 21, 2020
Hora Temperatura Punto de rocio Presión Viento Velocidad viento Racha viento Humedad Intensidad lluvia(por hora) Nubes
00:04 7.7 °C 6.9 °C 1015.8 hPa Sur 8.2 km/h 15.6 km/h 95% 0.2 mm
00:09 7.7 °C 6.9 °C 1015.9 hPa SSE 7.6 km/h 16.1 km/h 95% 0.2 mm
00:14 7.7 °C 6.9 °C 1015.9 hPa Sur 7.9 km/h 14.8 km/h 95% 0.2 mm
00:19 7.7 °C 6.9 °C 1015.9 hPa SSO 8.4 km/h 14.8 km/h 95% 0.2 mm
00:24 7.7 °C 7 °C 1015.9 hPa Sur 8.8 km/h 14.5 km/h 95% 0.2 mm
00:29 7.8 °C 7.1 °C 1015.8 hPa SSO 9.5 km/h 14 km/h 95% 0.2 mm
00:34 7.8 °C 7 °C 1015.8 hPa SSO 9.2 km/h 14.8 km/h 94.6% 0.2 mm
00:39 7.8 °C 6.9 °C 1015.8 hPa SSO 8.7 km/h 16.7 km/h 94% 0.2 mm
00:44 7.8 °C 6.9 °C 1015.5 hPa SSO 9 km/h 16.7 km/h 94% 0.2 mm
00:49 7.8 °C 6.9 °C 1015.5 hPa SSO 9.5 km/h 16.1 km/h 94% 0.2 mm
00:54 7.8 °C 6.9 °C 1015.5 hPa SO 9.5 km/h 16.1 km/h 94% 0.2 mm
00:59 7.8 °C 6.9 °C 1015.1 hPa SO 9.5 km/h 14.5 km/h 94% 0.2 mm
01:04 7.8 °C 6.9 °C 1015.1 hPa SO 9 km/h 13 km/h 94% 0.0 mm
01:09 7.8 °C 6.9 °C 1015.1 hPa SSO 8.4 km/h 13 km/h 94% 0.0 mm
01:14 7.8 °C 6.9 °C 1014.6 hPa SSO 8.5 km/h 15.6 km/h 94% 0.0 mm
01:19 7.8 °C 6.9 °C 1014.6 hPa SSO 8.7 km/h 16.4 km/h 94% 0.0 mm
01:24 7.8 °C 6.9 °C 1014.6 hPa SO 9.4 km/h 17.2 km/h 94% 0.3 mm
01:29 7.8 °C 6.9 °C 1014.0 hPa Sur 10.3 km/h 17.7 km/h 94% 0.3 mm
01:34 7.8 °C 6.9 °C 1014.0 hPa Sur 10.3 km/h 20.4 km/h 94% 0.3 mm
01:39 7.7 °C 6.9 °C 1014.0 hPa SSO 10.3 km/h 20.9 km/h 94.5% 0.3 mm
01:44 7.7 °C 6.9 °C 1013.9 hPa SO 11.2 km/h 17.7 km/h 95% 0.3 mm
01:49 7.8 °C 7 °C 1013.9 hPa SO 12.2 km/h 14.8 km/h 95% 0.3 mm
01:54 7.8 °C 7.1 °C 1013.9 hPa SO 10.6 km/h 14.8 km/h 95% 0.3 mm
01:59 7.8 °C 7.1 °C 1013.7 hPa SO 8.4 km/h 14.5 km/h 95% 0.3 mm
02:04 7.8 °C 7.1 °C 1013.7 hPa SSO 8.5 km/h 14.8 km/h 95% 0.3 mm
02:09 7.8 °C 7.1 °C 1013.7 hPa SSO 8.7 km/h 14.5 km/h 95% 0.3 mm
02:14 7.8 °C 7.1 °C 1013.2 hPa SO 8.2 km/h 14.5 km/h 95% 0.3 mm
02:19 7.9 °C 7 °C 1013.2 hPa SO 7.6 km/h 11.3 km/h 94.1% 0.3 mm
02:24 7.9 °C 7 °C 1013.2 hPa SSO 7.1 km/h 9.7 km/h 94% 0.3 mm
02:29 7.9 °C 7 °C 1013.2 hPa SSO 6.5 km/h 12.2 km/h 94% 0.0 mm
02:34 7.9 °C 7.1 °C 1013.2 hPa Sur 6.7 km/h 13 km/h 94.8% 0.0 mm
02:39 7.9 °C 7.1 °C 1013.2 hPa SSE 6.9 km/h 24.1 km/h 94.7% 0.0 mm
02:44 7.8 °C 7 °C 1013.2 hPa SE 8.5 km/h 24.1 km/h 94.6% 0.0 mm
02:49 7.8 °C 7.1 °C 1013.2 hPa OSO 10.3 km/h 22.5 km/h 95% 0.0 mm
02:54 7.7 °C 7 °C 1013.2 hPa OSO 9.5 km/h 15.6 km/h 95% 0.3 mm
02:59 7.8 °C 7 °C 1013.0 hPa SO 8.4 km/h 16.1 km/h 95% 0.3 mm
03:04 7.8 °C 7.1 °C 1013.0 hPa SO 8.4 km/h 13 km/h 95% 0.3 mm
03:09 7.9 °C 7.2 °C 1013.0 hPa SO 8.4 km/h 12.9 km/h 95% 0.3 mm
03:14 7.9 °C 7.2 °C 1012.7 hPa SSO 8 km/h 13 km/h 95% 0.3 mm
03:19 7.9 °C 7.2 °C 1012.7 hPa SSO 7.6 km/h 16.1 km/h 95% 0.3 mm
03:24 7.9 °C 7.2 °C 1012.7 hPa SSO 7.9 km/h 16.7 km/h 95% 0.3 mm
03:29 7.9 °C 7.2 °C 1012.2 hPa SSO 8.4 km/h 13 km/h 95% 0.3 mm
03:34 7.9 °C 7.2 °C 1012.2 hPa SSO 8.4 km/h 12.9 km/h 95% 0.3 mm
03:39 7.9 °C 7.2 °C 1012.2 hPa SSO 8.4 km/h 14.8 km/h 95% 0.3 mm
03:44 8 °C 7.2 °C 1011.8 hPa Oeste 8 km/h 14.5 km/h 95% 0.3 mm
03:49 8.1 °C 7.4 °C 1011.8 hPa ONO 7.6 km/h 12.9 km/h 95.4% 0.3 mm
03:54 8.1 °C 7.4 °C 1011.9 hPa OSO 5.7 km/h 14.8 km/h 95.4% 0.3 mm
03:59 8.3 °C 7.7 °C 1011.9 hPa NNE 3.2 km/h 14.8 km/h 96% 0.0 mm
04:04 8.3 °C 7.6 °C 1011.9 hPa NNO 4.8 km/h 14.5 km/h 95.3% 0.0 mm
04:09 8.3 °C 7.6 °C 1011.9 hPa NO 6.5 km/h 11.3 km/h 95% 0.0 mm
04:14 8.3 °C 7.6 °C 1011.6 hPa ESE 5.8 km/h 25.6 km/h 95% 0.3 mm
04:19 8.2 °C 7.5 °C 1011.6 hPa SE 5 km/h 30.9 km/h 95% 0.3 mm
04:24 8.2 °C 7.4 °C 1011.6 hPa SSO 9.7 km/h 32.2 km/h 95% 0.3 mm
04:29 8.2 °C 7.4 °C 1011.5 hPa SO 16.1 km/h 24.1 km/h 95% 0.3 mm
04:34 8.2 °C 7.4 °C 1011.5 hPa OSO 13.7 km/h 20.9 km/h 95% 0.3 mm
04:39 8.3 °C 7.5 °C 1011.5 hPa OSO 10.3 km/h 15.6 km/h 95% 0.3 mm
04:44 8.3 °C 7.6 °C 1011.0 hPa OSO 10.2 km/h 23.3 km/h 95% 0.3 mm
04:49 8.3 °C 7.5 °C 1011.0 hPa OSO 10 km/h 24.1 km/h 95% 0.3 mm
04:54 8.2 °C 7.4 °C 1011.0 hPa OSO 11.2 km/h 24.1 km/h 94.9% 0.3 mm
04:59 8.2 °C 7.3 °C 1011.0 hPa OSO 13 km/h 17.7 km/h 94% 0.3 mm
05:04 8.2 °C 7.3 °C 1011.0 hPa OSO 11.3 km/h 15.6 km/h 94% 0.3 mm
05:09 8.2 °C 7.3 °C 1011.0 hPa SO 9.5 km/h 16.1 km/h 94% 0.3 mm
05:14 8.2 °C 7.3 °C 1010.7 hPa SO 9 km/h 12.9 km/h 94% 0.3 mm
05:19 8.2 °C 7.3 °C 1010.7 hPa SSO 8.4 km/h 14.8 km/h 94% 0.0 mm
05:24 8.2 °C 7.3 °C 1010.9 hPa SO 8.5 km/h 14.8 km/h 94% 0.0 mm
05:29 8.2 °C 7.2 °C 1010.9 hPa OSO 8.7 km/h 18.5 km/h 93.7% 0.0 mm
05:34 8.2 °C 7.1 °C 1010.9 hPa OSO 8.2 km/h 19.3 km/h 93.2% 0.0 mm
05:39 8.2 °C 7.1 °C 1011.0 hPa SO 7.6 km/h 13 km/h 93% 0.0 mm
05:44 8.2 °C 7.1 °C 1011.0 hPa SSO 6.5 km/h 12.9 km/h 93% 0.0 mm
05:49 8.2 °C 7.1 °C 1011.0 hPa SSE 5 km/h 13 km/h 93.2% 0.5 mm
05:54 8.2 °C 7.2 °C 1011.2 hPa SSE 6.1 km/h 13 km/h 93.8% 0.5 mm
05:59 8.1 °C 7.2 °C 1011.2 hPa SE 7.6 km/h 13 km/h 94% 0.5 mm
06:04 8 °C 7.1 °C 1011.2 hPa Sur 7.9 km/h 13 km/h 94% 0.5 mm
06:09 8 °C 7.1 °C 1011.2 hPa SSO 8.4 km/h 13.7 km/h 94% 0.5 mm
06:14 8 °C 7.2 °C 1011.2 hPa SSO 7.5 km/h 14.5 km/h 95% 0.5 mm
06:19 8 °C 7.2 °C 1011.2 hPa SSO 6.5 km/h 8 km/h 95% 0.5 mm
06:24 8.1 °C 7.3 °C 1011.2 hPa SSO 5.3 km/h 8 km/h 95% 0.5 mm
06:29 8.1 °C 7.3 °C 1011.1 hPa Oeste 3.9 km/h 10 km/h 95% 0.5 mm
06:34 8.2 °C 7.4 °C 1011.1 hPa NO 4.2 km/h 9.7 km/h 95% 0.5 mm
06:39 8.2 °C 7.4 °C 1011.1 hPa NO 4.7 km/h 9.7 km/h 95% 0.5 mm
06:44 8.2 °C 7.4 °C 1010.9 hPa ONO 4.3 km/h 9.7 km/h 95% 0.5 mm
06:49 8.2 °C 7.4 °C 1010.9 hPa Oeste 3.9 km/h 8 km/h 95% 0.5 mm
06:54 8.2 °C 7.4 °C 1010.9 hPa Oeste 3.9 km/h 8 km/h 95% 0.0 mm
06:59 8.2 °C 7.4 °C 1010.6 hPa OSO 3.9 km/h 9.5 km/h 95% 0.0 mm
07:04 8.1 °C 7.3 °C 1010.6 hPa SO 5 km/h 13 km/h 95% 0.0 mm
07:09 8.1 °C 7.3 °C 1010.6 hPa SO 6.5 km/h 13 km/h 95% 0.0 mm
07:14 8.2 °C 7.4 °C 1010.3 hPa SO 6.9 km/h 11.3 km/h 95% 0.0 mm
07:19 8.2 °C 7.4 °C 1010.3 hPa Oeste 7.6 km/h 11.3 km/h 95% 0.2 mm
07:24 8.2 °C 7.4 °C 1010.8 hPa SO 6 km/h 11.9 km/h 95% 0.2 mm
07:29 8.2 °C 7.4 °C 1010.8 hPa Sur 3.9 km/h 13 km/h 95% 0.2 mm
07:34 8.2 °C 7.4 °C 1010.8 hPa Sur 5.9 km/h 13 km/h 95% 0.2 mm
07:39 8.2 °C 7.4 °C 1010.8 hPa SSO 8.7 km/h 13 km/h 95% 0.2 mm
07:44 8.2 °C 7.4 °C 1010.8 hPa SSE 8.6 km/h 12.9 km/h 95% 0.2 mm
07:49 8.2 °C 7.6 °C 1010.8 hPa SSO 8.4 km/h 11.9 km/h 96% 0.2 mm
07:54 8.2 °C 7.6 °C 1010.8 hPa SSO 7.7 km/h 11.9 km/h 96% 0.2 mm
07:59 8.2 °C 7.6 °C 1010.8 hPa SSO 6.9 km/h 11.3 km/h 96% 24.0 mm
08:04 8.2 °C 7.7 °C 1010.8 hPa SO 5.5 km/h 10 km/h 96% 24.0 mm
08:09 8.2 °C 7.6 °C 1011.2 hPa SO 3.9 km/h 15.6 km/h 96% 24.0 mm
08:14 8.2 °C 7.6 °C 1011.2 hPa SSO 6 km/h 16.1 km/h 96% 24.0 mm
08:19 8.2 °C 7.6 °C 1011.2 hPa SSE 8.7 km/h 16.7 km/h 96% 23.8 mm
08:24 8.2 °C 7.6 °C 1011.2 hPa SSO 9.1 km/h 22 km/h 96% 23.8 mm
08:29 8.1 °C 7.5 °C 1011.0 hPa SSO 9.5 km/h 22.5 km/h 96% 23.8 mm
08:34 8.1 °C 7.5 °C 1011.0 hPa Sur 11 km/h 20.9 km/h 96% 23.8 mm
08:39 8.1 °C 7.5 °C 1011.1 hPa SSO 13 km/h 20.9 km/h 96% 23.8 mm
08:44 8.1 °C 7.5 °C 1011.1 hPa SSO 11.8 km/h 19.3 km/h 96% 23.8 mm
08:49 8.1 °C 7.5 °C 1011.1 hPa SSO 10.3 km/h 18.5 km/h 96% 23.8 mm
08:54 8.1 °C 7.5 °C 1011.1 hPa SO 10.2 km/h 19.3 km/h 96% 24.1 mm
08:59 8.1 °C 7.5 °C 1011.1 hPa Sur 10 km/h 22.2 km/h 96% 24.1 mm
09:04 8.1 °C 7.5 °C 1011.1 hPa SSO 10.9 km/h 22.5 km/h 96% 0.3 mm
09:09 8.1 °C 7.5 °C 1011.2 hPa SO 11.9 km/h 20.9 km/h 96.1% 0.3 mm
09:14 8.1 °C 7.7 °C 1011.2 hPa SO 10.4 km/h 11.3 km/h 97% 0.3 mm
09:19 8.1 °C 7.7 °C 1011.2 hPa SO 8.4 km/h 13.7 km/h 97% 0.3 mm
09:24 8.1 °C 7.7 °C 1011.3 hPa OSO 7.6 km/h 14.5 km/h 97% 0.3 mm
09:29 8.1 °C 7.7 °C 1011.3 hPa SSO 6.5 km/h 14.8 km/h 97% 0.3 mm
09:34 8.2 °C 7.8 °C 1011.3 hPa SSE 7.7 km/h 19 km/h 97% 0.3 mm
09:39 8.1 °C 7.7 °C 1011.3 hPa Sur 9.5 km/h 27.8 km/h 97% 0.3 mm
09:44 8.1 °C 7.7 °C 1011.3 hPa Sur 11.4 km/h 27.4 km/h 97% 0.3 mm
09:49 8.1 °C 7.7 °C 1011.3 hPa SSE 14 km/h 27 km/h 97% 0.3 mm
09:54 8.1 °C 7.6 °C 1011.5 hPa SSO 14.9 km/h 27.4 km/h 97% 0.3 mm
09:59 8.1 °C 7.7 °C 1011.5 hPa SSO 16.1 km/h 24.1 km/h 97% 0.0 mm
10:04 8.1 °C 7.7 °C 1011.5 hPa SSO 15 km/h 24.1 km/h 97% 0.0 mm
10:09 8.1 °C 7.7 °C 1011.5 hPa Sur 13.7 km/h 22.5 km/h 97% 0.0 mm
10:14 8.1 °C 7.7 °C 1011.5 hPa SO 13.8 km/h 22.5 km/h 97% 0.0 mm
10:19 8.1 °C 7.7 °C 1011.5 hPa SO 14 km/h 25.1 km/h 97% 0.0 mm
10:24 8.1 °C 7.7 °C 1011.8 hPa SSO 14.7 km/h 26.2 km/h 97% 0.3 mm
10:29 8.1 °C 7.6 °C 1011.8 hPa Sur 15.6 km/h 25.9 km/h 97% 0.3 mm
10:34 8.1 °C 7.6 °C 1011.8 hPa SSE 15.6 km/h 25.7 km/h 97% 0.3 mm
10:54 7.9 °C 7.3 °C 1012.5 hPa SSO 13.9 km/h 24.1 km/h 96.2% 0.3 mm
10:59 7.9 °C 7.4 °C 1012.3 hPa SSO 14 km/h 24.1 km/h 97% 0.3 mm
11:04 7.9 °C 7.4 °C 1012.3 hPa SSO 13.9 km/h 21.7 km/h 97% 0.3 mm
11:09 7.8 °C 7.3 °C 1012.3 hPa SSO 13.7 km/h 22.5 km/h 96.9% 0.3 mm
11:14 7.8 °C 7.3 °C 1012.3 hPa SSO 12.5 km/h 22.5 km/h 97% 0.3 mm
11:19 7.8 °C 7.3 °C 1012.3 hPa SO 11.1 km/h 22.2 km/h 97% 0.3 mm
11:24 7.8 °C 7.3 °C 1012.3 hPa SSO 11.1 km/h 22.5 km/h 97% 0.0 mm
11:29 7.8 °C 7.3 °C 1012.0 hPa SSO 11.1 km/h 20.9 km/h 97% 0.0 mm
11:34 7.8 °C 7.3 °C 1012.0 hPa SSO 10.4 km/h 20.9 km/h 96.9% 0.0 mm
11:39 7.8 °C 7.3 °C 1012.3 hPa SSO 9.5 km/h 20.9 km/h 97% 0.0 mm
11:44 7.8 °C 7.3 °C 1012.3 hPa SSO 9.2 km/h 18.5 km/h 96.6% 0.0 mm
11:49 7.8 °C 7.2 °C 1012.3 hPa Sur 8.7 km/h 19.3 km/h 96% 0.0 mm
11:54 7.8 °C 7.2 °C 1012.3 hPa Sur 9.3 km/h 16.7 km/h 96% 0.0 mm
11:59 7.8 °C 7.3 °C 1012.0 hPa SSO 10 km/h 17.2 km/h 96% 0.0 mm
12:04 7.9 °C 7.3 °C 1012.0 hPa SSO 10 km/h 17.7 km/h 96% 0.0 mm
12:09 7.9 °C 7.3 °C 1012.2 hPa SSO 10 km/h 11.9 km/h 96% 29.5 mm
12:14 7.9 °C 7.3 °C 1012.2 hPa SSO 8.7 km/h 11.3 km/h 96% 29.8 mm
12:19 8 °C 7.4 °C 1012.2 hPa SSO 6.9 km/h 18.5 km/h 96% 23.4 mm
12:24 8.2 °C 7.6 °C 1012.2 hPa SSO 7.5 km/h 19.3 km/h 96% 23.4 mm
12:29 8.3 °C 7.7 °C 1011.9 hPa Sur 8.4 km/h 16.4 km/h 96% 23.4 mm
12:34 8.4 °C 7.8 °C 1011.9 hPa SSO 9.2 km/h 19 km/h 95.8% 23.4 mm
12:39 8.5 °C 7.7 °C 1011.9 hPa SSO 10.3 km/h 19.3 km/h 95% 23.4 mm
12:44 8.7 °C 7.9 °C 1011.7 hPa SSO 10.7 km/h 19.3 km/h 95% 23.4 mm
12:49 8.8 °C 8 °C 1011.7 hPa Sur 11.1 km/h 18.5 km/h 94.4% 23.4 mm
12:54 8.9 °C 8 °C 1011.7 hPa SSO 11.1 km/h 19.3 km/h 93.6% 23.4 mm
12:59 9.1 °C 8 °C 1011.5 hPa SSO 11.1 km/h 17.2 km/h 93% 23.4 mm
13:04 9.1 °C 7.9 °C 1011.5 hPa SSO 10.7 km/h 19 km/h 92.4% 23.4 mm
13:09 9.1 °C 7.9 °C 1011.5 hPa Sur 10.3 km/h 20.9 km/h 91.9% 29.8 mm
13:14 9.2 °C 7.8 °C 1011.3 hPa SSO 11.5 km/h 20.9 km/h 91.2% 0.3 mm
13:19 9.2 °C 7.8 °C 1011.3 hPa SSO 13 km/h 20.9 km/h 91% 0.0 mm
13:24 9.2 °C 7.8 °C 1011.3 hPa SSO 12.5 km/h 20.4 km/h 91% 0.0 mm
13:29 9.3 °C 7.8 °C 1011.3 hPa SSO 11.9 km/h 20.9 km/h 90.3% 0.0 mm
13:34 9.3 °C 7.8 °C 1011.3 hPa SSO 11.9 km/h 19.3 km/h 90% 0.0 mm
13:39 9.4 °C 7.8 °C 1011.3 hPa SSO 11.9 km/h 20.1 km/h 89.6% 0.0 mm
13:44 9.4 °C 7.7 °C 1011.1 hPa SSO 11.9 km/h 20.9 km/h 89% 0.0 mm
13:49 9.5 °C 7.8 °C 1011.1 hPa OSO 11.9 km/h 20.9 km/h 89% 0.0 mm
13:54 9.7 °C 8 °C 1011.1 hPa SO 9.7 km/h 12.9 km/h 89.4% 0.0 mm
13:59 9.8 °C 8 °C 1011.0 hPa Sur 6.9 km/h 14.8 km/h 89% 0.0 mm
14:04 9.8 °C 8 °C 1011.0 hPa SSO 7.8 km/h 20.9 km/h 88.6% 0.0 mm
14:09 9.7 °C 7.8 °C 1011.0 hPa SSO 8.7 km/h 20.9 km/h 87.8% 0.0 mm
14:14 9.7 °C 7.7 °C 1010.9 hPa SSO 10.2 km/h 20.9 km/h 87.4% 0.5 mm
14:19 9.7 °C 7.6 °C 1010.9 hPa SSO 12.2 km/h 20.9 km/h 86.9% 0.5 mm
14:24 9.7 °C 7.6 °C 1010.9 hPa SSO 12.2 km/h 19.3 km/h 86.5% 0.5 mm
14:29 9.8 °C 7.6 °C 1010.9 hPa SSO 12.2 km/h 19.3 km/h 86% 0.5 mm
14:34 10 °C 7.8 °C 1010.9 hPa SSO 11.8 km/h 19.3 km/h 86% 0.5 mm
14:39 10.1 °C 7.8 °C 1010.9 hPa SSO 11.1 km/h 19.3 km/h 85.7% 0.5 mm
14:44 10.2 °C 7.6 °C 1010.8 hPa SSO 11.1 km/h 19.3 km/h 84.1% 0.5 mm
14:49 10.3 °C 7.8 °C 1010.8 hPa Sur 11.1 km/h 19.3 km/h 84.7% 0.5 mm
14:54 10.4 °C 7.8 °C 1010.9 hPa SSO 11.1 km/h 20.4 km/h 83.6% 0.5 mm
14:59 10.6 °C 7.8 °C 1010.9 hPa SSO 11.1 km/h 20.9 km/h 83% 0.5 mm
15:04 10.7 °C 7.9 °C 1010.9 hPa Sur 11.6 km/h 19.3 km/h 82.7% 0.5 mm
15:09 10.8 °C 8 °C 1010.9 hPa SSO 12.2 km/h 17.7 km/h 83% 0.5 mm
15:14 10.9 °C 8 °C 1010.8 hPa SSO 11.1 km/h 20.4 km/h 82% 0.5 mm
15:19 11.1 °C 8.1 °C 1010.8 hPa Sur 9.5 km/h 20.9 km/h 81.6% 0.0 mm
15:24 11.2 °C 8.1 °C 1011.0 hPa SSO 9.8 km/h 18.5 km/h 81.2% 0.0 mm
15:29 11.2 °C 7.9 °C 1011.0 hPa SSO 10.3 km/h 20.4 km/h 80.3% 0.0 mm
15:34 11.2 °C 7.9 °C 1011.0 hPa SSO 10.7 km/h 20.9 km/h 80% 0.0 mm
15:39 11.3 °C 8 °C 1011.0 hPa SO 11.1 km/h 16.1 km/h 80.1% 0.0 mm
15:44 11.4 °C 8 °C 1010.9 hPa SSO 9.5 km/h 14.5 km/h 79.8% 0.0 mm
15:49 11.5 °C 8 °C 1010.9 hPa SSO 7.6 km/h 13 km/h 79.5% 0.0 mm
15:54 11.6 °C 8 °C 1011.3 hPa SSO 8 km/h 15.6 km/h 78.7% 0.0 mm
15:59 11.6 °C 8 °C 1011.3 hPa SSO 8.7 km/h 16.1 km/h 78.7% 0.0 mm
16:04 11.6 °C 8 °C 1011.3 hPa SO 7.8 km/h 14.8 km/h 78.7% 0.0 mm
16:09 11.6 °C 8 °C 1011.3 hPa SO 6.9 km/h 14.5 km/h 78.4% 0.0 mm
16:14 11.6 °C 7.9 °C 1011.1 hPa SSO 6.9 km/h 13 km/h 78% 0.0 mm
16:19 11.6 °C 7.9 °C 1011.1 hPa Sur 6.9 km/h 13 km/h 78% 0.3 mm
16:24 11.6 °C 7.9 °C 1011.2 hPa SSO 7.2 km/h 12.9 km/h 78% 0.3 mm
16:29 11.6 °C 7.9 °C 1011.2 hPa SSO 7.6 km/h 11.3 km/h 78% 0.3 mm
16:34 11.7 °C 8 °C 1011.2 hPa SO 6.8 km/h 9.3 km/h 78.1% 0.3 mm
16:39 11.7 °C 8.1 °C 1011.4 hPa SO 5.8 km/h 9.7 km/h 78.8% 0.3 mm
16:44 11.7 °C 8 °C 1011.4 hPa SO 5.3 km/h 9.5 km/h 78.2% 0.3 mm
16:49 11.8 °C 8.1 °C 1011.4 hPa SO 4.6 km/h 9.7 km/h 78% 0.3 mm
16:54 11.8 °C 8.1 °C 1011.6 hPa OSO 4.3 km/h 10.3 km/h 78% 0.3 mm
16:59 11.8 °C 8.1 °C 1011.6 hPa OSO 3.9 km/h 9.7 km/h 77.9% 0.3 mm
17:04 11.8 °C 8.1 °C 1011.6 hPa SO 4.4 km/h 9.7 km/h 78% 0.3 mm
17:09 11.8 °C 8 °C 1011.8 hPa Sur 5 km/h 10 km/h 77.6% 0.3 mm
17:14 11.8 °C 7.9 °C 1011.8 hPa SSE 5.3 km/h 9.7 km/h 77.1% 0.3 mm
17:19 11.8 °C 7.9 °C 1011.8 hPa SSE 5.8 km/h 13 km/h 77.1% 0.0 mm
17:24 11.8 °C 7.9 °C 1012.1 hPa SSO 6.3 km/h 12.9 km/h 77.3% 0.0 mm
17:29 11.7 °C 8 °C 1012.1 hPa SO 6.9 km/h 11.3 km/h 77.8% 0.0 mm
17:34 11.7 °C 8 °C 1012.1 hPa SO 6.7 km/h 9.7 km/h 77.8% 0.0 mm
17:39 11.7 °C 8 °C 1012.3 hPa SO 6.5 km/h 9.7 km/h 78% 0.0 mm
17:44 11.6 °C 7.9 °C 1012.3 hPa SO 5.8 km/h 8 km/h 78% 0.0 mm
17:49 11.6 °C 7.9 °C 1012.3 hPa SO 5 km/h 8 km/h 78% 0.0 mm
17:54 11.6 °C 8 °C 1012.6 hPa OSO 4.2 km/h 8 km/h 78.8% 0.0 mm
17:59 11.6 °C 7.9 °C 1012.6 hPa SO 3.2 km/h 8 km/h 78% 0.0 mm
18:04 11.5 °C 7.8 °C 1012.6 hPa SSO 3.5 km/h 8 km/h 78% 0.0 mm
18:09 11.5 °C 7.8 °C 1012.8 hPa SSO 3.9 km/h 6.4 km/h 78.1% 0.0 mm
18:14 11.5 °C 7.8 °C 1012.8 hPa SSO 3.9 km/h 8 km/h 78% 0.0 mm
18:19 11.5 °C 7.9 °C 1012.8 hPa SSO 3.9 km/h 6.4 km/h 78.6% 0.0 mm
18:24 11.6 °C 8 °C 1013.0 hPa SSO 3.2 km/h 3.2 km/h 79% 0.0 mm
18:29 11.5 °C 8 °C 1013.0 hPa SSO 2.2 km/h   79.1% 0.0 mm
18:34 11.5 °C 8.2 °C 1013.0 hPa SSO 1.2 km/h   80% 0.0 mm
18:39 11.4 °C 8.1 °C 1013.1 hPa Calm   5.8 km/h 80% 0.3 mm
18:44 11.4 °C 8.3 °C 1013.1 hPa SE 1.3 km/h 7.4 km/h 80.9% 0.3 mm
18:49 11.3 °C 8.2 °C 1013.1 hPa SE 2.9 km/h 8 km/h 81% 0.3 mm
18:54 11.3 °C 8.3 °C 1013.2 hPa SE 3.7 km/h 8 km/h 81.8% 0.3 mm
18:59 11.2 °C 8.3 °C 1013.2 hPa SSE 4.7 km/h 9.5 km/h 82.5% 0.3 mm
19:04 11 °C 8.3 °C 1013.2 hPa Sur 5.2 km/h 9.7 km/h 83% 0.3 mm
19:09 10.9 °C 8.3 °C 1013.4 hPa SSO 5.8 km/h 8.4 km/h 83.8% 0.3 mm
19:14 10.8 °C 8.3 °C 1013.4 hPa Sur 5.3 km/h 8 km/h 84% 0.3 mm
19:19 10.8 °C 8.3 °C 1013.4 hPa Sur 4.6 km/h 8 km/h 84.3% 0.3 mm
19:24 10.8 °C 8.4 °C 1013.6 hPa SSO 4.7 km/h 8 km/h 85% 0.3 mm
19:29 10.7 °C 8.3 °C 1013.6 hPa SSE 4.7 km/h 8 km/h 85% 0.3 mm
19:34 10.7 °C 8.3 °C 1013.6 hPa SSE 4.7 km/h 8 km/h 85% 0.3 mm
19:39 10.7 °C 8.3 °C 1013.8 hPa SSE 4.7 km/h 8 km/h 85% 0.3 mm
19:44 10.7 °C 8.3 °C 1013.8 hPa SSE 2.7 km/h 3.2 km/h 85% 0.0 mm
19:49 10.7 °C 8.2 °C 1013.8 hPa Calm   7.4 km/h 85.1% 0.0 mm
19:54 10.6 °C 8.3 °C 1014.1 hPa SSE 1.2 km/h 8 km/h 85.9% 0.0 mm
19:59 10.6 °C 8.3 °C 1014.1 hPa SSE 2.9 km/h 8 km/h 86.1% 0.0 mm
20:04 10.6 °C 8.5 °C 1014.1 hPa SSE 1.6 km/h   87% 0.0 mm
20:09 10.5 °C 8.5 °C 1014.3 hPa Calm     87% 0.0 mm
20:14 10.5 °C 8.5 °C 1014.3 hPa Calm     87.4% 0.0 mm
20:19 10.4 °C 8.5 °C 1014.3 hPa Calm     88% 0.0 mm
20:24 10.4 °C 8.5 °C 1014.4 hPa Calm     88% 0.0 mm
20:29 10.4 °C 8.5 °C 1014.4 hPa Calm     88% 0.0 mm
20:34 10.4 °C 8.7 °C 1014.4 hPa Calm     89% 0.0 mm
20:39 10.3 °C 8.6 °C 1014.7 hPa Calm     89% 0.0 mm
20:44 10.3 °C 8.6 °C 1014.7 hPa Calm     89% 0.0 mm
20:49 10.3 °C 8.7 °C 1014.7 hPa Calm   2.3 km/h 89.8% 0.0 mm
20:54 10.3 °C 8.7 °C 1014.7 hPa Calm   7.4 km/h 90% 0.0 mm
20:59 10.2 °C 8.6 °C 1014.7 hPa Calm   8 km/h 90% 0.0 mm
21:04 10.1 °C 8.6 °C 1014.7 hPa SE 1.5 km/h 8 km/h 90% 0.0 mm
21:09 10 °C 8.5 °C 1014.9 hPa SE 3.2 km/h 4.8 km/h 90% 0.0 mm
21:14 9.9 °C 8.4 °C 1014.9 hPa SE 3.1 km/h 6.4 km/h 90.5% 0.0 mm
21:19 9.9 °C 8.5 °C 1014.9 hPa SSE 2.9 km/h 8 km/h 91% 0.0 mm
21:24 9.9 °C 8.5 °C 1015.0 hPa Sur 3.3 km/h 8 km/h 91% 0.0 mm
21:29 9.8 °C 8.4 °C 1015.0 hPa SSO 3.9 km/h 8 km/h 91% 0.0 mm
21:34 9.8 °C 8.4 °C 1015.0 hPa SSO 4.2 km/h 8 km/h 91% 0.0 mm
21:39 9.8 °C 8.4 °C 1015.0 hPa SSO 4.7 km/h 8 km/h 91% 0.0 mm
21:44 9.8 °C 8.5 °C 1015.0 hPa SSO 2.5 km/h   91.6% 0.0 mm
21:49 9.8 °C 8.6 °C 1015.0 hPa Calm   8.4 km/h 92% 0.0 mm
21:54 9.8 °C 8.6 °C 1015.3 hPa SSE 1.4 km/h 10 km/h 92% 0.3 mm
21:59 9.8 °C 8.5 °C 1015.3 hPa SSE 3.2 km/h 9.7 km/h 92% 0.3 mm
22:04 9.7 °C 8.4 °C 1015.3 hPa SSE 4.7 km/h 9.7 km/h 92% 0.3 mm
22:09 9.7 °C 8.4 °C 1015.3 hPa Sur 6.5 km/h 9.7 km/h 92% 0.3 mm
22:14 9.6 °C 8.4 °C 1015.3 hPa Sur 6.2 km/h 9.7 km/h 92.1% 0.3 mm
22:19 9.6 °C 8.5 °C 1015.3 hPa Sur 5.8 km/h 10 km/h 93% 0.3 mm
22:24 9.6 °C 8.5 °C 1015.5 hPa Sur 6.1 km/h 10 km/h 93% 0.3 mm
22:29 9.5 °C 8.4 °C 1015.5 hPa Sur 6.5 km/h 9.7 km/h 93% 0.3 mm
22:34 9.4 °C 8.3 °C 1015.5 hPa Sur 6.5 km/h 11.1 km/h 93% 0.3 mm
22:39 9.4 °C 8.3 °C 1015.7 hPa SSO 6.5 km/h 11.3 km/h 93% 0.3 mm
22:44 9.4 °C 8.3 °C 1015.7 hPa SSO 5.9 km/h 8 km/h 93% 0.3 mm
22:49 9.4 °C 8.3 °C 1015.7 hPa OSO 5 km/h 8.4 km/h 93% 0.3 mm
22:54 9.3 °C 8.4 °C 1015.7 hPa SO 4.3 km/h 8 km/h 93.8% 0.3 mm
22:59 9.3 °C 8.4 °C 1015.7 hPa SO 3.2 km/h 8 km/h 94% 0.0 mm
23:04 9.3 °C 8.4 °C 1015.7 hPa SO 3.5 km/h 8 km/h 94% 0.0 mm
23:09 9.3 °C 8.4 °C 1015.8 hPa OSO 3.9 km/h 8 km/h 94% 0.0 mm
23:14 9.3 °C 8.4 °C 1015.8 hPa Oeste 3.6 km/h 8 km/h 94% 0.0 mm
23:19 9.3 °C 8.4 °C 1015.8 hPa SO 3.2 km/h 4.8 km/h 94% 0.0 mm
23:24 9.3 °C 8.4 °C 1016.0 hPa SSE 2.8 km/h 9.3 km/h 94% 0.0 mm
23:29 9.3 °C 8.4 °C 1016.0 hPa SSO 2.2 km/h 11.9 km/h 94% 0.0 mm
23:34 9.3 °C 8.4 °C 1016.0 hPa Sur 4.5 km/h 13.7 km/h 94% 0.0 mm
23:39 9.2 °C 8.3 °C 1016.3 hPa SSO 7.6 km/h 14.5 km/h 94% 0.8 mm
23:44 9.2 °C 8.3 °C 1016.3 hPa SSO 7.9 km/h 12.9 km/h 94% 0.8 mm
23:49 9.2 °C 8.4 °C 1016.3 hPa SSO 8.4 km/h 11.3 km/h 94.5% 0.8 mm
23:54 9.2 °C 8.4 °C 1016.3 hPa SO 6.9 km/h 11.1 km/h 94.6% 0.8 mm
23:59 9.2 °C 8.4 °C 1016.3 hPa OSO 5 km/h 11.3 km/h 94.9% 0.8 mm
Murcia-Puente Tocinos, España
Compliments of Weather Underground - 3 mb

La estación de MeteoMurcia.com, publica sus datos en los siguientes proyectos:

Weather Underground PWS IMURCIAP2 Meteoclimatic www.awekas.at

W3Counter
Web Analytics